Time;durP1;ratioP1;P1;durP2;ratioP2;P2;SDS_P1;SDS_P2;PMS_P1;PMS_P2;Temp;Humidity;BMP_temperature;BMP_pressure;BME280_temperature;BME280_humidity;BME280_pressure;Samples;Min_cycle;Max_cycle;Signal;HPM_P1;HPM_P2
2023/02/01 00:01:44;;;;;;;;;12.67;9.67;;;;;10.89;100.00;101979.31;4950042;28;45446;-84
2023/02/01 00:04:10;;;;;;;;;14.67;13.67;;;;;10.63;100.00;101935.88;4967431;28;45467;-85
2023/02/01 00:06:35;;;;;;;;;12.33;12.33;;;;;10.79;100.00;101970.13;4967564;28;45419;-86
2023/02/01 00:09:00;;;;;;;;;15.67;14.00;;;;;10.68;100.00;101947.56;4965833;28;45468;-85
2023/02/01 00:11:26;;;;;;;;;11.00;11.00;;;;;10.73;100.00;101964.59;4964362;28;45391;-85
2023/02/01 00:13:53;;;;;;;;;14.33;14.33;;;;;10.92;100.00;101988.25;4962788;28;45249;-85
2023/02/01 00:16:21;;;;;;;;;9.67;9.67;;;;;10.87;100.00;101981.91;4946174;28;47137;-85
2023/02/01 00:18:48;;;;;;;;;14.00;13.67;;;;;10.85;100.00;101978.28;4927734;28;45611;-84
2023/02/01 00:21:15;;;;;;;;;14.00;11.00;;;;;10.86;100.00;101971.19;4945773;28;45448;-85
2023/02/01 00:23:41;;;;;;;;;10.67;10.67;;;;;10.84;100.00;101968.47;4945149;28;45448;-85
2023/02/01 00:26:12;;;;;;;;;11.00;10.00;;;;;10.87;100.00;101960.63;4943011;28;47874;-85
2023/02/01 00:28:38;;;;;;;;;8.67;8.67;;;;;10.79;100.00;101951.47;4929201;28;45470;-85
2023/02/01 00:31:04;;;;;;;;;11.33;11.33;;;;;10.83;100.00;101956.06;4928519;28;45409;-84
2023/02/01 00:33:30;;;;;;;;;12.33;11.00;;;;;10.77;100.00;101955.84;4928143;28;45645;-84
2023/02/01 00:36:01;;;;;;;;;10.00;9.00;;;;;10.81;100.00;101960.41;4928087;28;47692;-85
2023/02/01 00:38:28;;;;;;;;;11.33;10.00;;;;;10.67;100.00;101951.09;4946930;28;45544;-85
2023/02/01 00:40:54;;;;;;;;;6.67;6.67;;;;;10.53;100.00;101946.19;4947285;28;45454;-85
2023/02/01 00:43:20;;;;;;;;;13.33;13.33;;;;;10.51;100.00;101966.53;4930646;28;45453;-84
2023/02/01 00:45:46;;;;;;;;;12.33;11.67;;;;;10.40;100.00;101950.22;4943987;28;46954;-84
2023/02/01 00:48:12;;;;;;;;;8.67;8.67;;;;;10.35;100.00;101957.09;4928206;28;45412;-85
2023/02/01 00:50:42;;;;;;;;;11.33;11.33;;;;;10.42;100.00;101958.22;4946069;28;45211;-85
2023/02/01 00:53:09;;;;;;;;;9.67;9.00;;;;;10.35;100.00;101962.41;4929929;28;45502;-85
2023/02/01 00:55:34;;;;;;;;;11.33;11.33;;;;;10.34;100.00;101957.97;4942945;28;45952;-85
2023/02/01 00:57:59;;;;;;;;;15.33;10.00;;;;;10.31;100.00;101956.97;4944342;28;45376;-86
2023/02/01 01:00:25;;;;;;;;;10.33;10.33;;;;;10.36;100.00;101965.97;4930741;28;44752;-84
2023/02/01 01:02:51;;;;;;;;;11.67;11.67;;;;;10.25;100.00;101943.41;4948609;28;45465;-85
2023/02/01 01:05:17;;;;;;;;;14.33;10.33;;;;;10.28;100.00;101973.69;4932262;28;46811;-85
2023/02/01 01:07:42;;;;;;;;;11.00;10.00;;;;;10.28;100.00;101976.34;4950284;28;45255;-84
2023/02/01 01:10:08;;;;;;;;;10.00;9.67;;;;;10.29;100.00;101977.25;4935041;28;45791;-84
2023/02/01 01:12:42;;;;;;;;;8.00;7.67;;;;;10.23;100.00;101975.25;4935038;28;45351;-84
2023/02/01 01:15:08;;;;;;;;;13.00;9.67;;;;;10.23;100.00;101972.59;4941431;28;48123;-84
2023/02/01 01:17:34;;;;;;;;;9.67;9.67;;;;;10.29;100.00;101983.44;4971610;28;45546;-84
2023/02/01 01:19:59;;;;;;;;;11.00;9.67;;;;;10.26;100.00;101977.13;4957379;28;45545;-84
2023/02/01 01:22:25;;;;;;;;;11.67;10.33;;;;;10.25;100.00;101981.53;4952634;28;45490;-84
2023/02/01 01:24:50;;;;;;;;;14.00;9.00;;;;;10.20;100.00;101970.75;4951395;28;48346;-85
2023/02/01 01:27:22;;;;;;;;;10.00;8.00;;;;;10.28;100.00;101979.00;4953784;28;45774;-85
2023/02/01 01:29:48;;;;;;;;;10.33;10.00;;;;;10.19;100.00;101958.28;4952121;28;45845;-85
2023/02/01 01:32:17;;;;;;;;;11.33;10.00;;;;;10.32;100.00;101980.94;4951653;28;45357;-84
2023/02/01 01:34:42;;;;;;;;;7.67;7.67;;;;;10.36;100.00;101987.25;4950161;28;45459;-85
2023/02/01 01:37:08;;;;;;;;;10.00;8.00;;;;;10.39;100.00;101987.38;4952498;28;45433;-85
2023/02/01 01:39:33;;;;;;;;;9.33;8.33;;;;;10.25;100.00;101954.94;4967527;28;45484;-84
2023/02/01 01:42:12;;;;;;;;;11.33;10.00;;;;;10.45;100.00;101976.94;4967087;28;45458;-85
2023/02/01 01:45:04;;;;;;;;;14.67;12.33;;;;;10.61;100.00;101992.56;4949525;28;48181;-85
2023/02/01 01:47:42;;;;;;;;;7.67;7.67;;;;;10.52;100.00;101983.38;4952447;28;45695;-85
2023/02/01 01:50:12;;;;;;;;;9.67;8.33;;;;;10.54;100.00;101998.56;4952179;28;45253;-84
2023/02/01 01:52:44;;;;;;;;;8.33;8.33;;;;;10.47;100.00;101979.66;4950630;28;45530;-85
2023/02/01 01:55:10;;;;;;;;;7.00;5.00;;;;;10.43;100.00;101991.94;4951348;28;46758;-85
2023/02/01 01:57:39;;;;;;;;;5.67;5.00;;;;;10.46;100.00;101984.06;4954586;28;45395;-85
2023/02/01 02:00:12;;;;;;;;;6.33;6.33;;;;;10.53;100.00;102004.72;4952027;28;45308;-85
2023/02/01 02:02:44;;;;;;;;;8.33;7.00;;;;;10.21;100.00;101959.25;4950684;28;45538;-84
2023/02/01 02:05:11;;;;;;;;;11.50;8.50;;;;;10.42;100.00;102011.41;4950587;28;46437;-84
2023/02/01 02:07:41;;;;;;;;;8.67;4.33;;;;;10.48;100.00;102011.63;4952589;28;45461;-85
2023/02/01 02:10:13;;;;;;;;;7.67;7.00;;;;;10.23;100.00;101966.38;4952055;28;44827;-84
2023/02/01 02:12:41;;;;;;;;;6.00;5.00;;;;;10.53;100.00;101998.50;4951313;28;45524;-85
2023/02/01 02:15:09;;;;;;;;;3.33;3.33;;;;;10.50;100.00;101999.31;4945571;28;48126;-84
2023/02/01 02:17:43;;;;;;;;;6.33;4.00;;;;;10.63;100.00;101991.75;4949686;28;45410;-84
2023/02/01 02:27:03;;;;;;;;;3.67;2.33;;;;;10.62;100.00;101990.81;4947763;28;45508;-86
2023/02/01 02:29:54;;;;;;;;;4.00;4.00;;;;;10.64;100.00;101994.44;4930082;28;45426;-85
2023/02/01 02:32:56;;;;;;;;;4.33;4.00;;;;;10.69;100.00;101991.94;4931158;28;45592;-85
2023/02/01 02:35:54;;;;;;;;;3.00;3.00;;;;;10.63;100.00;101967.78;4910296;28;44836;-85
2023/02/01 02:38:41;;;;;;;;;3.67;3.67;;;;;10.65;100.00;101979.41;4909881;28;48451;-85
2023/02/01 02:47:28;;;;;;;;;7.00;5.00;;;;;10.67;100.00;101978.59;4929461;28;45294;-85
2023/02/01 03:04:26;;;;;;;;;3.00;3.00;;;;;10.39;100.00;101998.00;4927694;28;45396;-85
2023/02/01 03:06:53;;;;;;;;;7.00;4.00;;;;;10.44;100.00;101998.16;4909401;28;45553;-85
2023/02/01 03:09:44;;;;;;;;;7.33;4.00;;;;;10.49;100.00;101994.81;4923533;28;45437;-85
2023/02/01 03:15:07;;;;;;;;;3.67;3.67;;;;;10.48;100.00;102000.97;4931139;28;45434;-86
2023/02/01 03:17:39;;;;;;;;;2.33;2.33;;;;;10.48;100.00;101993.00;4932664;28;45377;-84
2023/02/01 03:20:40;;;;;;;;;2.67;2.33;;;;;10.56;100.00;101995.94;4931964;28;45353;-85
2023/02/01 03:23:26;;;;;;;;;2.67;2.67;;;;;10.36;100.00;101992.56;4929029;28;47491;-85
2023/02/01 03:25:56;;;;;;;;;3.67;3.67;;;;;10.35;100.00;101985.47;4936568;28;45319;-85
2023/02/01 03:28:25;;;;;;;;;5.00;3.33;;;;;10.35;100.00;101988.13;4964116;28;45444;-85
2023/02/01 03:30:51;;;;;;;;;4.00;3.00;;;;;10.26;100.00;101977.13;4947431;28;45782;-84
2023/02/01 03:33:26;;;;;;;;;3.67;3.00;;;;;10.29;100.00;101970.16;4950253;28;48326;-84
2023/02/01 03:35:52;;;;;;;;;5.33;5.33;;;;;10.29;100.00;102003.81;4948403;28;45427;-85
2023/02/01 03:38:23;;;;;;;;;3.00;3.00;;;;;10.35;100.00;102004.06;4948718;28;45352;-85
2023/02/01 03:40:58;;;;;;;;;5.33;5.00;;;;;10.26;100.00;101986.03;4948146;28;45337;-86
2023/02/01 03:43:27;;;;;;;;;3.00;2.00;;;;;10.22;100.00;101992.06;4965013;28;48382;-85
2023/02/01 03:46:00;;;;;;;;;5.33;5.33;;;;;10.35;100.00;102004.06;4965715;28;45489;-86
2023/02/01 03:48:28;;;;;;;;;8.67;7.00;;;;;10.30;100.00;101984.38;4966286;28;44794;-85
2023/02/01 03:51:00;;;;;;;;;3.00;3.00;;;;;10.35;100.00;101986.34;4965367;28;45210;-84
2023/02/01 03:53:26;;;;;;;;;3.67;3.67;;;;;10.29;100.00;101977.25;4962911;28;47076;-84
2023/02/01 03:55:58;;;;;;;;;4.00;2.00;;;;;10.41;100.00;101996.31;4964965;28;45847;-85
2023/02/01 03:58:26;;;;;;;;;5.00;5.00;;;;;10.30;100.00;101979.06;4963897;28;45564;-85
2023/02/01 04:00:59;;;;;;;;;3.67;3.67;;;;;10.48;100.00;101987.69;4946934;28;45615;-85
2023/02/01 04:03:32;;;;;;;;;6.33;4.00;;;;;10.45;100.00;101992.91;4947546;28;47142;-85
2023/02/01 04:05:58;;;;;;;;;5.67;3.00;;;;;10.31;100.00;101988.88;4946864;28;45837;-85
2023/02/01 04:08:24;;;;;;;;;4.67;4.00;;;;;10.15;100.00;101955.47;4946718;28;45682;-85
2023/02/01 04:10:50;;;;;;;;;3.33;3.33;;;;;10.34;100.00;101997.88;4963894;28;45391;-84
2023/02/01 04:13:15;;;;;;;;;4.00;4.00;;;;;10.31;100.00;101987.09;4963911;28;45401;-84
2023/02/01 04:15:49;;;;;;;;;3.00;3.00;;;;;10.44;100.00;101993.75;4947506;28;45498;-85
2023/02/01 04:18:15;;;;;;;;;3.67;3.67;;;;;10.30;100.00;101987.97;4948831;28;45452;-85
2023/02/01 04:20:40;;;;;;;;;2.00;2.00;;;;;10.35;100.00;101996.09;4947668;28;45466;-84
2023/02/01 04:23:05;;;;;;;;;3.33;3.00;;;;;10.31;100.00;101986.22;4965383;28;46061;-85
2023/02/01 04:25:34;;;;;;;;;3.33;3.33;;;;;10.35;100.00;101988.13;4948112;28;45648;-84
2023/02/01 04:27:59;;;;;;;;;4.67;3.00;;;;;10.29;100.00;101996.75;4946732;28;45263;-85
2023/02/01 04:30:25;;;;;;;;;4.00;4.00;;;;;10.23;100.00;102003.59;4965724;28;45281;-84
2023/02/01 04:32:53;;;;;;;;;7.33;4.00;;;;;10.27;100.00;102005.53;4947649;28;47338;-84
2023/02/01 04:35:24;;;;;;;;;4.33;3.67;;;;;10.35;100.00;102009.41;4948319;28;45915;-84
2023/02/01 04:37:50;;;;;;;;;8.67;4.33;;;;;10.27;100.00;102008.19;4950170;28;45338;-85
2023/02/01 04:40:15;;;;;;;;;6.33;4.33;;;;;10.00;100.00;101956.75;4950355;28;45532;-85
2023/02/01 04:42:44;;;;;;;;;5.00;3.00;;;;;10.21;100.00;102008.88;4967307;28;45650;-85
2023/02/01 04:45:22;;;;;;;;;7.00;3.00;;;;;10.16;100.00;102016.69;4949564;28;45891;-85
2023/02/01 04:47:48;;;;;;;;;5.00;4.00;;;;;9.96;100.00;101985.81;4949310;28;45383;-85
2023/02/01 04:50:21;;;;;;;;;3.33;3.33;;;;;9.73;100.00;101969.91;4951053;28;45682;-84
2023/02/01 04:52:46;;;;;;;;;4.00;3.33;;;;;9.88;100.00;102000.59;4968178;28;48162;-85
2023/02/01 04:55:13;;;;;;;;;4.00;4.00;;;;;9.85;100.00;102005.75;4967536;28;45333;-85
2023/02/01 04:57:40;;;;;;;;;2.67;2.33;;;;;9.72;100.00;102005.31;4967254;28;45678;-85
2023/02/01 05:00:07;;;;;;;;;2.67;2.67;;;;;9.79;100.00;102019.72;4949633;28;45305;-85
2023/02/01 05:02:45;;;;;;;;;6.33;6.33;;;;;9.63;100.00;102012.91;4933674;28;47289;-84
2023/02/01 05:05:11;;;;;;;;;3.33;3.33;;;;;9.39;100.00;101987.25;4967732;28;45422;-84
2023/02/01 05:07:36;;;;;;;;;3.00;3.00;;;;;9.51;100.00;102015.09;4964671;28;45433;-85
2023/02/01 05:10:01;;;;;;;;;3.67;3.00;;;;;9.54;100.00;102025.84;4965073;28;45494;-85
2023/02/01 05:15:11;;;;;;;;;3.67;3.67;;;;;9.52;100.00;102027.53;4966433;28;45470;-85
2023/02/01 05:17:40;;;;;;;;;3.33;2.00;;;;;9.40;100.00;102012.94;4933850;28;45518;-84
2023/02/01 05:20:06;;;;;;;;;7.00;4.00;;;;;9.45;100.00;102014.84;4945334;28;45650;-84
2023/02/01 05:22:31;;;;;;;;;5.00;2.00;;;;;9.18;100.00;101989.03;4946639;28;45513;-84
2023/02/01 05:24:58;;;;;;;;;6.33;3.33;;;;;9.45;100.00;102025.47;4946190;28;45753;-84
2023/02/01 05:27:23;;;;;;;;;4.00;3.33;;;;;9.41;100.00;102024.44;4930968;28;45594;-84
2023/02/01 05:29:49;;;;;;;;;2.00;1.00;;;;;9.32;100.00;102006.41;4946566;28;45450;-85
2023/02/01 05:32:14;;;;;;;;;3.67;3.33;;;;;9.49;100.00;102024.75;4945755;28;47835;-84
2023/02/01 05:34:39;;;;;;;;;6.67;6.33;;;;;9.44;100.00;102010.41;4931252;28;45817;-85
2023/02/01 05:37:06;;;;;;;;;4.00;4.00;;;;;9.59;100.00;102025.19;4931783;28;45480;-84
2023/02/01 05:39:31;;;;;;;;;3.33;3.33;;;;;9.59;100.00;102034.88;4949139;28;45481;-85
2023/02/01 05:41:57;;;;;;;;;9.33;4.33;;;;;9.65;100.00;102045.75;4931056;28;48242;-84
2023/02/01 05:44:22;;;;;;;;;3.00;3.00;;;;;9.69;100.00;102050.34;4947594;28;45384;-85
2023/02/01 05:46:47;;;;;;;;;8.00;6.00;;;;;9.75;100.00;102039.03;4929775;28;45247;-84
2023/02/01 05:49:18;;;;;;;;;2.00;2.00;;;;;9.68;100.00;102035.25;4930596;28;45603;-84
2023/02/01 05:51:44;;;;;;;;;4.33;3.00;;;;;9.66;100.00;102021.00;4947366;28;45512;-84
2023/02/01 05:54:09;;;;;;;;;7.00;5.67;;;;;9.76;100.00;102031.16;4931743;28;45238;-85
2023/02/01 05:56:35;;;;;;;;;5.33;4.00;;;;;9.63;100.00;102007.59;4950677;28;45424;-85
2023/02/01 05:59:00;;;;;;;;;3.33;3.33;;;;;9.82;100.00;102036.69;4948739;28;45397;-84
2023/02/01 06:01:26;;;;;;;;;6.67;5.67;;;;;9.84;100.00;102034.09;4950510;28;45514;-84
2023/02/01 06:03:51;;;;;;;;;5.67;3.00;;;;;9.79;100.00;102025.03;4949439;28;45430;-84
2023/02/01 06:06:18;;;;;;;;;3.00;3.00;;;;;9.78;100.00;102042.72;4948717;28;44948;-85
2023/02/01 06:08:44;;;;;;;;;6.67;5.33;;;;;9.75;100.00;102047.00;4935856;28;45540;-85
2023/02/01 06:11:09;;;;;;;;;5.00;5.00;;;;;9.66;100.00;102031.63;4950922;28;45414;-84
2023/02/01 06:13:38;;;;;;;;;7.00;5.67;;;;;9.73;100.00;102028.34;4950818;28;45350;-85
2023/02/01 06:16:05;;;;;;;;;2.00;2.00;;;;;9.63;100.00;102031.50;4952924;28;45480;-85
2023/02/01 06:18:31;;;;;;;;;4.00;4.00;;;;;9.72;100.00;102041.59;4952563;28;45337;-85
2023/02/01 06:20:59;;;;;;;;;6.67;5.33;;;;;9.75;100.00;102053.22;4970200;28;45256;-84
2023/02/01 06:23:25;;;;;;;;;8.00;4.33;;;;;9.74;100.00;102046.13;4948428;28;45735;-85
2023/02/01 06:25:53;;;;;;;;;7.67;6.33;;;;;9.81;100.00;102048.16;4948816;28;45385;-85
2023/02/01 06:28:18;;;;;;;;;5.33;3.00;;;;;9.75;100.00;102042.59;4968505;28;45295;-84
2023/02/01 06:30:45;;;;;;;;;7.67;5.33;;;;;9.81;100.00;102053.47;4952167;28;46977;-84
2023/02/01 06:33:14;;;;;;;;;3.00;3.00;;;;;9.84;100.00;102046.44;4966306;28;46178;-84
2023/02/01 06:35:42;;;;;;;;;3.67;2.33;;;;;9.84;100.00;102043.78;4966205;28;45374;-83
2023/02/01 06:38:09;;;;;;;;;2.67;2.67;;;;;9.83;100.00;102040.25;4966231;28;45748;-83
2023/02/01 06:40:35;;;;;;;;;3.67;3.67;;;;;9.85;100.00;102029.69;4967181;28;48209;-84
2023/02/01 06:43:00;;;;;;;;;10.00;6.67;;;;;9.77;100.00;102016.09;4967927;28;45512;-84
2023/02/01 06:45:26;;;;;;;;;3.00;3.00;;;;;9.80;100.00;102034.81;4968313;28;44942;-84
2023/02/01 06:47:51;;;;;;;;;4.33;4.33;;;;;9.71;100.00;102037.13;4968520;28;45483;-84
2023/02/01 06:50:16;;;;;;;;;3.67;3.67;;;;;9.61;100.00;102046.47;4969118;28;45443;-85
2023/02/01 06:52:42;;;;;;;;;3.00;3.00;;;;;9.56;100.00;102054.28;4950404;28;45966;-84
2023/02/01 06:55:08;;;;;;;;;3.00;3.00;;;;;9.57;100.00;102056.09;4970636;28;45350;-84
2023/02/01 06:57:35;;;;;;;;;5.33;3.00;;;;;9.54;100.00;102063.94;4969635;28;45377;-84
2023/02/01 07:00:02;;;;;;;;;5.67;5.67;;;;;9.49;100.00;102056.63;4948673;28;47132;-85
2023/02/01 07:02:28;;;;;;;;;3.00;3.00;;;;;9.49;100.00;102059.28;4950649;28;45885;-85
2023/02/01 07:04:53;;;;;;;;;5.00;3.33;;;;;9.40;100.00;102058.06;4968745;28;45744;-85
2023/02/01 07:07:19;;;;;;;;;6.67;2.67;;;;;9.30;100.00;102045.28;4951211;28;45648;-85
2023/02/01 07:09:45;;;;;;;;;4.00;4.00;;;;;9.33;100.00;102053.38;4951861;28;47222;-84
2023/02/01 07:12:10;;;;;;;;;5.00;4.67;;;;;9.29;100.00;102064.72;4970693;28;45368;-85
2023/02/01 07:14:36;;;;;;;;;8.00;7.00;;;;;9.25;100.00;102053.88;4969588;28;45355;-85
2023/02/01 07:17:01;;;;;;;;;8.00;7.00;;;;;9.30;100.00;102069.16;4950806;28;45340;-85
2023/02/01 07:19:27;;;;;;;;;5.67;4.00;;;;;9.25;100.00;102070.75;4966859;28;47484;-84
2023/02/01 07:21:52;;;;;;;;;7.00;5.00;;;;;9.25;100.00;102075.13;4968502;28;45357;-84
2023/02/01 07:24:17;;;;;;;;;8.67;8.33;;;;;9.26;100.00;102085.81;4967246;28;45441;-84
2023/02/01 07:26:43;;;;;;;;;7.33;7.00;;;;;9.24;100.00;102092.81;4951688;28;45432;-85
2023/02/01 07:29:11;;;;;;;;;7.67;7.00;;;;;9.31;100.00;102096.63;4969036;28;45336;-84
2023/02/01 07:31:37;;;;;;;;;4.67;4.67;;;;;9.16;100.00;102081.88;4950847;28;45524;-84
2023/02/01 07:34:02;;;;;;;;;5.67;4.00;;;;;9.26;100.00;102099.09;4949982;28;45522;-82
2023/02/01 07:36:29;;;;;;;;;6.67;3.33;;;;;9.35;100.00;102087.94;4947224;28;45270;-84
2023/02/01 07:38:54;;;;;;;;;9.00;7.00;;;;;9.33;100.00;102090.53;4932204;28;47088;-84
2023/02/01 07:41:20;;;;;;;;;7.67;7.67;;;;;9.43;100.00;102106.84;4933595;28;45416;-86
2023/02/01 07:43:46;;;;;;;;;13.00;9.00;;;;;9.45;100.00;102113.13;4970616;28;45393;-86
2023/02/01 07:46:12;;;;;;;;;8.33;7.00;;;;;9.43;100.00;102106.84;4972923;28;45394;-86
2023/02/01 07:51:59;;;;;;;;;8.00;4.67;;;;;9.51;100.00;102121.31;4970367;28;45678;-86
2023/02/01 07:54:25;;;;;;;;;10.00;8.33;;;;;9.51;100.00;102121.31;4970818;28;44792;-84
2023/02/01 07:56:50;;;;;;;;;3.33;3.33;;;;;9.53;100.00;102131.19;4955552;28;45589;-85
2023/02/01 07:59:16;;;;;;;;;12.00;10.00;;;;;9.56;100.00;102133.94;4952997;28;48165;-86
2023/02/01 08:01:41;;;;;;;;;5.67;3.33;;;;;9.62;100.00;102135.97;4969355;28;45633;-85
2023/02/01 08:04:11;;;;;;;;;13.00;9.67;;;;;9.73;100.00;102139.94;4969616;28;44869;-84
2023/02/01 08:06:37;;;;;;;;;5.67;5.67;;;;;9.67;100.00;102133.47;4951966;28;45344;-85
2023/02/01 08:09:07;;;;;;;;;9.33;4.33;;;;;9.64;100.00;102118.34;4968701;28;46907;-85
2023/02/01 08:11:33;;;;;;;;;7.00;5.33;;;;;9.40;100.00;102066.03;4951101;28;45319;-85
2023/02/01 08:14:30;;;;;;;;;8.00;8.00;;;;;9.88;100.00;102123.72;4954549;28;45629;-86
2023/02/01 08:17:09;;;;;;;;;8.00;7.67;;;;;9.73;100.00;102089.47;4933439;28;45319;-85
2023/02/01 08:19:37;;;;;;;;;27.00;24.67;;;;;9.78;100.00;102094.97;4932387;28;46773;-84
2023/02/01 08:22:06;;;;;;;;;10.00;10.00;;;;;9.88;100.00;102109.53;4949345;28;45206;-85
2023/02/01 08:27:54;;;;;;;;;9.33;8.00;;;;;10.01;100.00;102109.13;4938719;28;44921;-84
2023/02/01 08:30:23;;;;;;;;;16.00;13.00;;;;;10.15;100.00;102115.88;4934749;28;47271;-86
2023/02/01 08:32:55;;;;;;;;;7.67;6.33;;;;;10.11;100.00;102087.38;4936793;28;45334;-84
2023/02/01 08:35:20;;;;;;;;;11.00;6.33;;;;;10.24;100.00;102118.00;4930618;28;45437;-83
2023/02/01 08:37:46;;;;;;;;;4.33;4.33;;;;;10.11;100.00;102083.81;4920276;28;45741;-84
2023/02/01 08:40:21;;;;;;;;;8.00;6.67;;;;;10.32;100.00;102119.22;4925067;28;46796;-84
2023/02/01 08:42:53;;;;;;;;;8.00;5.33;;;;;10.08;100.00;102057.09;4922708;28;45354;-84
2023/02/01 08:45:25;;;;;;;;;8.33;7.00;;;;;10.30;100.00;102070.41;4929731;28;45594;-82
2023/02/01 08:47:57;;;;;;;;;10.33;9.00;;;;;10.54;100.00;102091.66;4948508;28;45743;-82
2023/02/01 08:50:24;;;;;;;;;8.67;7.67;;;;;10.61;100.00;102098.09;4938096;28;47178;-85
2023/02/01 08:52:53;;;;;;;;;8.00;4.33;;;;;10.54;100.00;102059.75;4956392;28;45569;-84
2023/02/01 08:55:19;;;;;;;;;10.33;7.00;;;;;10.61;100.00;102077.72;4946309;28;45288;-86
2023/02/01 08:57:44;;;;;;;;;8.00;5.67;;;;;10.58;100.00;102059.00;4944902;28;45385;-84
2023/02/01 09:00:16;;;;;;;;;9.00;5.67;;;;;10.84;100.00;102093.56;4932689;28;46839;-85
2023/02/01 09:02:46;;;;;;;;;8.00;7.00;;;;;10.89;100.00;102091.97;4937593;28;45241;-83
2023/02/01 09:05:12;;;;;;;;;8.33;5.67;;;;;10.85;100.00;102087.41;4927285;28;44907;-83
2023/02/01 09:08:04;;;;;;;;;9.00;5.00;;;;;11.02;100.00;102095.97;4964946;28;45851;-84
2023/02/01 09:10:41;;;;;;;;;7.00;4.33;;;;;10.78;100.00;102058.75;4949521;28;45664;-82
2023/02/01 09:13:07;;;;;;;;;9.33;8.00;;;;;10.69;100.00;102058.47;4945735;28;45687;-83
2023/02/01 09:15:33;;;;;;;;;7.00;7.00;;;;;10.94;100.00;102093.03;4938154;28;45502;-84
2023/02/01 09:17:59;;;;;;;;;9.67;7.67;;;;;11.08;100.00;102095.28;4943966;28;45554;-84
2023/02/01 09:20:24;;;;;;;;;10.00;8.67;;;;;11.13;100.00;102105.22;4943844;28;46790;-83
2023/02/01 09:22:52;;;;;;;;;2.00;2.00;;;;;11.21;100.00;102108.16;4920544;28;45742;-83
2023/02/01 09:25:18;;;;;;;;;10.00;7.67;;;;;11.22;100.00;102120.59;4943660;28;44874;-84
2023/02/01 09:31:09;;;;;;;;;7.00;5.00;;;;;11.34;100.00;102128.09;4887907;29;45298;-84
2023/02/01 09:34:17;;;;;;;;;9.00;4.00;;;;;11.01;100.00;102083.50;4880816;29;45863;-81
2023/02/01 09:37:03;;;;;;;;;4.33;3.67;;;;;10.97;100.00;102127.75;4840992;29;45524;-82
2023/02/01 09:43:54;;;;;;;;;12.67;10.67;;;;;11.09;100.00;102169.88;4818962;29;45695;-84
2023/02/01 09:46:51;;;;;;;;;3.00;2.33;;;;;11.04;100.00;102173.22;4810491;29;45002;-85
2023/02/01 09:50:33;;;;;;;;;;;;;;;;;;;;;
2023/02/01 09:53:04;;;;;;;;;12.67;9.33;;;;;10.95;100.00;102180.03;4815746;29;65987;-85
2023/02/01 09:55:36;;;;;;;;;14.67;12.67;;;;;10.98;100.00;102158.81;4814747;29;47128;-85
2023/02/01 09:58:08;;;;;;;;;8.00;8.00;;;;;10.94;100.00;102134.72;4822882;29;45446;-84
2023/02/01 10:00:39;;;;;;;;;8.67;5.67;;;;;11.17;100.00;102155.06;4819994;29;45600;-84
2023/02/01 10:03:13;;;;;;;;;14.33;8.33;;;;;11.14;100.00;102138.06;4820356;29;45586;-85
2023/02/01 10:09:50;;;;;;;;;23.67;21.00;;;;;11.65;100.00;102156.63;4849064;29;45332;-86
2023/02/01 10:12:53;;;;;;;;;12.33;12.33;;;;;11.82;100.00;102149.19;4837721;29;45563;-84
2023/02/01 10:15:26;;;;;;;;;9.67;8.00;;;;;11.84;100.00;102149.25;4822700;29;45677;-86
2023/02/01 10:18:21;;;;;;;;;5.67;5.00;;;;;11.97;100.00;102148.78;4875621;29;46701;-85
2023/02/01 10:24:52;;;;;;;;;5.67;5.33;;;;;12.04;100.00;102153.47;4961753;28;45271;-85
2023/02/01 10:27:22;;;;;;;;;8.00;5.67;;;;;11.90;100.00;102138.81;4946890;28;45808;-83
2023/02/01 10:30:35;;;;;;;;;3.33;3.00;;;;;12.09;100.00;102157.16;4971652;28;45593;-85
2023/02/01 10:33:19;;;;;;;;;7.67;7.67;;;;;12.19;100.00;102148.59;4818866;29;45525;-84
2023/02/01 10:35:50;;;;;;;;;7.33;4.00;;;;;12.21;100.00;102146.88;4816526;29;45453;-83
2023/02/01 10:38:45;;;;;;;;;4.00;4.00;;;;;12.29;100.00;102154.22;4794254;29;45507;-84
2023/02/01 10:41:34;;;;;;;;;9.00;8.67;;;;;12.29;100.00;102151.53;4819078;29;48278;-83
2023/02/01 10:44:12;;;;;;;;;7.33;7.33;;;;;12.25;100.00;102146.97;4802577;29;45005;-84
2023/02/01 10:46:45;;;;;;;;;8.33;8.33;;;;;12.26;100.00;102138.09;4794266;29;45378;-85
2023/02/01 10:49:48;;;;;;;;;9.00;5.00;;;;;12.32;100.00;102122.25;4802230;29;45543;-84
2023/02/01 10:52:24;;;;;;;;;7.00;6.33;;;;;12.30;100.00;102129.31;4803828;29;46954;-83
2023/02/01 10:54:53;;;;;;;;;11.67;9.33;;;;;12.43;100.00;102131.50;4819495;29;45470;-83
2023/02/01 10:57:31;;;;;;;;;10.00;9.67;;;;;12.37;100.00;102115.31;4816681;29;45478;-83
2023/02/01 11:00:21;;;;;;;;;7.00;5.67;;;;;12.31;100.00;102081.34;4817785;29;45528;-84
2023/02/01 11:02:50;;;;;;;;;9.00;8.00;;;;;12.44;100.00;102130.63;4822690;29;45513;-83
2023/02/01 11:05:23;;;;;;;;;7.67;7.00;;;;;12.56;100.00;102123.00;4857980;29;45381;-83
2023/02/01 11:07:55;;;;;;;;;8.67;6.00;;;;;12.32;100.00;102085.84;4861014;29;45506;-84
2023/02/01 11:11:29;;;;;;;;;12.00;10.00;;;;;12.70;100.00;102106.44;4941546;28;45490;-86
2023/02/01 11:14:13;;;;;;;;;8.33;8.33;;;;;12.87;100.00;102130.94;4839352;29;46071;-84
2023/02/01 11:17:18;;;;;;;;;8.67;8.67;;;;;12.80;100.00;102087.13;4828539;29;45360;-84
2023/02/01 11:20:17;;;;;;;;;10.00;10.00;;;;;13.05;100.00;102119.81;4856892;29;45589;-86
2023/02/01 11:22:48;;;;;;;;;11.67;8.00;;;;;12.94;100.00;102099.06;4823058;29;44953;-85
2023/02/01 11:25:23;;;;;;;;;8.67;6.67;;;;;12.95;100.00;102111.59;4821223;29;45591;-86
2023/02/01 11:27:54;;;;;;;;;10.00;4.33;;;;;12.81;100.00;102097.84;4848798;29;45498;-84
2023/02/01 11:31:06;;;;;;;;;10.67;9.00;;;;;13.12;100.00;102127.13;4876178;29;45106;-84
2023/02/01 11:33:53;;;;;;;;;6.67;5.00;;;;;12.81;100.00;102086.28;4832874;29;45503;-84
2023/02/01 11:39:39;;;;;;;;;9.00;6.33;;;;;12.74;100.00;102095.88;4880845;29;45715;-86
2023/02/01 11:42:54;;;;;;;;;5.33;5.00;;;;;12.80;100.00;102079.13;4827657;29;45111;-84
2023/02/01 11:45:40;;;;;;;;;11.00;5.33;;;;;12.87;100.00;102075.75;4860318;29;45395;-84
2023/02/01 11:50:11;;;;;;;;;;;;;;;;;;;;;
2023/02/01 11:52:40;;;;;;;;;4.67;4.67;;;;;13.04;100.00;102112.69;4858097;29;45582;-84
2023/02/01 11:55:40;;;;;;;;;10.67;8.33;;;;;12.94;100.00;102104.41;4856404;29;45453;-84
2023/02/01 11:58:37;;;;;;;;;12.33;11.00;;;;;13.03;100.00;102095.75;4848487;29;45962;-79
2023/02/01 12:01:16;;;;;;;;;58.33;45.67;;;;;13.05;100.00;102088.69;4840274;29;45357;-80
2023/02/01 12:04:31;;;;;;;;;16.33;12.00;;;;;13.17;100.00;102090.78;4834176;29;45580;-81
2023/02/01 12:07:16;;;;;;;;;27.00;25.33;;;;;13.07;100.00;102088.72;4829015;29;45572;-78
2023/02/01 12:10:02;;;;;;;;;18.00;16.33;;;;;13.21;100.00;102077.53;4830057;29;45538;-78
2023/02/01 12:19:31;;;;;;;;;10.00;8.67;;;;;13.39;100.00;102049.44;4827963;29;45238;-78
2023/02/01 12:22:28;;;;;;;;;6.33;6.33;;;;;13.38;100.00;102039.66;4810395;29;45782;-79
2023/02/01 12:25:09;;;;;;;;;8.00;6.00;;;;;13.58;100.00;102046.34;4845608;29;47693;-77
2023/02/01 12:28:04;;;;;;;;;9.00;6.33;;;;;13.98;100.00;102054.34;4830352;29;45502;-79
2023/02/01 12:30:38;;;;;;;;;6.00;4.67;;;;;14.18;100.00;102062.78;4956629;28;45516;-78
2023/02/01 12:33:33;;;;;;;;;7.67;7.67;;;;;14.22;100.00;102062.00;4967252;28;45413;-76
2023/02/01 12:36:12;;;;;;;;;8.67;8.67;;;;;14.23;100.00;102063.78;4881859;29;45516;-79
2023/02/01 12:39:14;;;;;;;;;7.33;5.33;;;;;14.15;100.00;102063.63;4865964;29;45917;-78
2023/02/01 12:41:55;;;;;;;;;4.67;4.00;;;;;14.10;100.00;102061.72;4881589;29;45450;-78
2023/02/01 12:44:34;;;;;;;;;6.33;6.33;;;;;14.03;100.00;102055.34;4866557;29;45683;-78
2023/02/01 12:47:17;;;;;;;;;10.67;7.33;;;;;14.07;100.00;102056.31;4865808;29;47501;-78
2023/02/01 12:49:58;;;;;;;;;9.67;6.00;;;;;14.04;100.00;102054.47;4868737;29;45484;-79
2023/02/01 12:52:37;;;;;;;;;6.67;4.00;;;;;13.96;100.00;102048.06;4868826;29;45553;-78